sensor_id;sensor_type;location;lat;lon;timestamp;temperature;humidity
16136;DHT22;8173;48.354;9.248;2023-03-14T00:01:43;6.60;99.90
16136;DHT22;8173;48.354;9.248;2023-03-14T00:04:14;6.50;99.90
16136;DHT22;8173;48.354;9.248;2023-03-14T00:06:42;6.50;99.90
16136;DHT22;8173;48.354;9.248;2023-03-14T00:09:12;6.50;99.90
16136;DHT22;8173;48.354;9.248;2023-03-14T00:11:41;6.50;99.90
16136;DHT22;8173;48.354;9.248;2023-03-14T00:14:11;6.40;99.90
16136;DHT22;8173;48.354;9.248;2023-03-14T00:17:02;6.50;99.90
16136;DHT22;8173;48.354;9.248;2023-03-14T00:19:42;6.50;99.90
16136;DHT22;8173;48.354;9.248;2023-03-14T00:22:10;6.40;99.90
16136;DHT22;8173;48.354;9.248;2023-03-14T00:24:37;6.30;99.90
16136;DHT22;8173;48.354;9.248;2023-03-14T00:27:04;6.20;99.90
16136;DHT22;8173;48.354;9.248;2023-03-14T00:29:32;6.30;99.90
16136;DHT22;8173;48.354;9.248;2023-03-14T00:32:16;6.30;99.90
16136;DHT22;8173;48.354;9.248;2023-03-14T00:35:10;6.30;99.90
16136;DHT22;8173;48.354;9.248;2023-03-14T00:37:39;6.30;99.90
16136;DHT22;8173;48.354;9.248;2023-03-14T00:40:10;6.30;99.90
16136;DHT22;8173;48.354;9.248;2023-03-14T00:42:37;6.40;99.90
16136;DHT22;8173;48.354;9.248;2023-03-14T00:45:05;6.40;99.90
16136;DHT22;8173;48.354;9.248;2023-03-14T00:47:34;6.30;99.90
16136;DHT22;8173;48.354;9.248;2023-03-14T00:50:01;6.40;99.90
16136;DHT22;8173;48.354;9.248;2023-03-14T00:52:28;6.40;99.90
16136;DHT22;8173;48.354;9.248;2023-03-14T00:54:56;6.30;99.90
16136;DHT22;8173;48.354;9.248;2023-03-14T00:57:24;6.30;99.90
16136;DHT22;8173;48.354;9.248;2023-03-14T00:59:51;6.30;99.90
16136;DHT22;8173;48.354;9.248;2023-03-14T01:02:18;6.30;99.90
16136;DHT22;8173;48.354;9.248;2023-03-14T01:04:48;6.30;99.90
16136;DHT22;8173;48.354;9.248;2023-03-14T01:07:16;6.80;99.90
16136;DHT22;8173;48.354;9.248;2023-03-14T01:09:43;6.30;99.90
16136;DHT22;8173;48.354;9.248;2023-03-14T01:12:10;6.30;99.90
16136;DHT22;8173;48.354;9.248;2023-03-14T01:14:38;6.30;99.90
16136;DHT22;8173;48.354;9.248;2023-03-14T01:17:04;6.30;99.90
16136;DHT22;8173;48.354;9.248;2023-03-14T01:19:31;6.30;99.90
16136;DHT22;8173;48.354;9.248;2023-03-14T01:22:00;6.30;99.90
16136;DHT22;8173;48.354;9.248;2023-03-14T01:24:28;6.30;99.90
16136;DHT22;8173;48.354;9.248;2023-03-14T01:26:55;6.40;99.90
16136;DHT22;8173;48.354;9.248;2023-03-14T01:29:22;6.40;99.90
16136;DHT22;8173;48.354;9.248;2023-03-14T01:31:49;6.30;99.90
16136;DHT22;8173;48.354;9.248;2023-03-14T01:34:16;6.30;99.90
16136;DHT22;8173;48.354;9.248;2023-03-14T01:36:57;7.60;99.90
16136;DHT22;8173;48.354;9.248;2023-03-14T01:39:33;6.30;99.90
16136;DHT22;8173;48.354;9.248;2023-03-14T01:42:07;6.30;99.90
16136;DHT22;8173;48.354;9.248;2023-03-14T01:44:53;6.30;99.90
16136;DHT22;8173;48.354;9.248;2023-03-14T01:47:20;6.20;99.90
16136;DHT22;8173;48.354;9.248;2023-03-14T01:49:50;6.50;99.90
16136;DHT22;8173;48.354;9.248;2023-03-14T01:52:25;6.30;99.90
16136;DHT22;8173;48.354;9.248;2023-03-14T01:55:08;6.20;99.90
16136;DHT22;8173;48.354;9.248;2023-03-14T01:57:37;6.30;99.90
16136;DHT22;8173;48.354;9.248;2023-03-14T02:00:08;6.20;99.90
16136;DHT22;8173;48.354;9.248;2023-03-14T02:02:40;6.30;99.90
16136;DHT22;8173;48.354;9.248;2023-03-14T02:05:09;6.30;99.90
16136;DHT22;8173;48.354;9.248;2023-03-14T02:07:40;6.20;99.90
16136;DHT22;8173;48.354;9.248;2023-03-14T02:10:15;6.20;99.90
16136;DHT22;8173;48.354;9.248;2023-03-14T02:12:45;6.20;99.90
16136;DHT22;8173;48.354;9.248;2023-03-14T02:15:12;6.20;99.90
16136;DHT22;8173;48.354;9.248;2023-03-14T02:17:40;6.10;99.90
16136;DHT22;8173;48.354;9.248;2023-03-14T02:20:27;6.20;99.90
16136;DHT22;8173;48.354;9.248;2023-03-14T02:22:55;6.10;99.90
16136;DHT22;8173;48.354;9.248;2023-03-14T02:25:31;6.20;99.90
16136;DHT22;8173;48.354;9.248;2023-03-14T02:28:02;6.20;99.90
16136;DHT22;8173;48.354;9.248;2023-03-14T02:30:32;6.10;99.90
16136;DHT22;8173;48.354;9.248;2023-03-14T02:33:03;6.10;99.90
16136;DHT22;8173;48.354;9.248;2023-03-14T02:35:37;6.10;99.90
16136;DHT22;8173;48.354;9.248;2023-03-14T02:38:09;6.20;99.90
16136;DHT22;8173;48.354;9.248;2023-03-14T02:40:38;6.30;99.90
16136;DHT22;8173;48.354;9.248;2023-03-14T02:43:06;6.20;99.90
16136;DHT22;8173;48.354;9.248;2023-03-14T02:45:37;6.20;99.90
16136;DHT22;8173;48.354;9.248;2023-03-14T02:48:07;6.20;99.90
16136;DHT22;8173;48.354;9.248;2023-03-14T02:50:35;6.20;99.90
16136;DHT22;8173;48.354;9.248;2023-03-14T02:53:02;6.20;99.90
16136;DHT22;8173;48.354;9.248;2023-03-14T02:55:28;6.20;99.90
16136;DHT22;8173;48.354;9.248;2023-03-14T03:00:24;6.20;99.90
16136;DHT22;8173;48.354;9.248;2023-03-14T03:02:51;6.70;99.90
16136;DHT22;8173;48.354;9.248;2023-03-14T03:05:18;6.20;99.90
16136;DHT22;8173;48.354;9.248;2023-03-14T03:07:45;6.30;99.90
16136;DHT22;8173;48.354;9.248;2023-03-14T03:10:12;6.30;99.90
16136;DHT22;8173;48.354;9.248;2023-03-14T03:12:39;6.40;99.90
16136;DHT22;8173;48.354;9.248;2023-03-14T03:15:07;6.30;99.90
16136;DHT22;8173;48.354;9.248;2023-03-14T03:17:35;6.30;99.90
16136;DHT22;8173;48.354;9.248;2023-03-14T03:20:02;6.20;99.90
16136;DHT22;8173;48.354;9.248;2023-03-14T03:22:30;6.30;99.90
16136;DHT22;8173;48.354;9.248;2023-03-14T03:24:56;6.30;99.90
16136;DHT22;8173;48.354;9.248;2023-03-14T03:27:23;6.30;99.90
16136;DHT22;8173;48.354;9.248;2023-03-14T03:29:50;6.30;99.90
16136;DHT22;8173;48.354;9.248;2023-03-14T03:32:16;6.30;99.90
16136;DHT22;8173;48.354;9.248;2023-03-14T03:34:45;6.20;99.90
16136;DHT22;8173;48.354;9.248;2023-03-14T03:37:11;6.20;99.90
16136;DHT22;8173;48.354;9.248;2023-03-14T03:39:38;6.20;99.90
16136;DHT22;8173;48.354;9.248;2023-03-14T03:42:05;6.20;99.90
16136;DHT22;8173;48.354;9.248;2023-03-14T03:44:31;6.20;99.90
16136;DHT22;8173;48.354;9.248;2023-03-14T03:46:58;6.20;99.90
16136;DHT22;8173;48.354;9.248;2023-03-14T03:49:28;6.20;99.90
16136;DHT22;8173;48.354;9.248;2023-03-14T03:51:56;6.10;99.90
16136;DHT22;8173;48.354;9.248;2023-03-14T03:54:23;6.10;99.90
16136;DHT22;8173;48.354;9.248;2023-03-14T03:56:50;6.10;99.90
16136;DHT22;8173;48.354;9.248;2023-03-14T03:59:17;6.00;99.90
16136;DHT22;8173;48.354;9.248;2023-03-14T04:01:44;6.00;99.90
16136;DHT22;8173;48.354;9.248;2023-03-14T04:04:11;6.00;99.90
16136;DHT22;8173;48.354;9.248;2023-03-14T04:06:37;5.90;99.90
16136;DHT22;8173;48.354;9.248;2023-03-14T04:09:06;5.90;99.90
16136;DHT22;8173;48.354;9.248;2023-03-14T04:11:32;5.80;99.90
16136;DHT22;8173;48.354;9.248;2023-03-14T04:13:59;5.90;99.90
16136;DHT22;8173;48.354;9.248;2023-03-14T04:16:26;5.80;99.90
16136;DHT22;8173;48.354;9.248;2023-03-14T04:18:53;5.80;99.90
16136;DHT22;8173;48.354;9.248;2023-03-14T04:21:20;5.80;99.90
16136;DHT22;8173;48.354;9.248;2023-03-14T04:23:46;6.30;99.90
16136;DHT22;8173;48.354;9.248;2023-03-14T04:26:15;5.80;99.90
16136;DHT22;8173;48.354;9.248;2023-03-14T04:28:42;5.80;99.90
16136;DHT22;8173;48.354;9.248;2023-03-14T04:31:09;5.80;99.90
16136;DHT22;8173;48.354;9.248;2023-03-14T04:33:36;5.80;99.90
16136;DHT22;8173;48.354;9.248;2023-03-14T04:36:04;5.90;99.90
16136;DHT22;8173;48.354;9.248;2023-03-14T04:38:31;5.80;99.90
16136;DHT22;8173;48.354;9.248;2023-03-14T04:40:58;5.90;99.90
16136;DHT22;8173;48.354;9.248;2023-03-14T04:43:27;5.90;99.90
16136;DHT22;8173;48.354;9.248;2023-03-14T04:45:54;5.90;99.90
16136;DHT22;8173;48.354;9.248;2023-03-14T04:48:21;5.80;99.90
16136;DHT22;8173;48.354;9.248;2023-03-14T04:50:48;5.70;99.90
16136;DHT22;8173;48.354;9.248;2023-03-14T04:53:15;5.70;99.90
16136;DHT22;8173;48.354;9.248;2023-03-14T04:55:42;5.70;99.90
16136;DHT22;8173;48.354;9.248;2023-03-14T04:58:09;5.60;99.90
16136;DHT22;8173;48.354;9.248;2023-03-14T05:00:37;5.60;99.90
16136;DHT22;8173;48.354;9.248;2023-03-14T05:03:03;5.60;99.90
16136;DHT22;8173;48.354;9.248;2023-03-14T05:05:30;5.60;99.90
16136;DHT22;8173;48.354;9.248;2023-03-14T05:10:24;5.60;99.90
16136;DHT22;8173;48.354;9.248;2023-03-14T05:12:51;5.60;99.90
16136;DHT22;8173;48.354;9.248;2023-03-14T05:15:17;5.60;99.90
16136;DHT22;8173;48.354;9.248;2023-03-14T05:17:45;5.60;99.90
16136;DHT22;8173;48.354;9.248;2023-03-14T05:20:14;5.60;99.90
16136;DHT22;8173;48.354;9.248;2023-03-14T05:22:41;5.60;99.90
16136;DHT22;8173;48.354;9.248;2023-03-14T05:25:09;5.60;99.90
16136;DHT22;8173;48.354;9.248;2023-03-14T05:27:36;5.50;99.90
16136;DHT22;8173;48.354;9.248;2023-03-14T05:30:03;5.50;99.90
16136;DHT22;8173;48.354;9.248;2023-03-14T05:32:30;5.50;99.90
16136;DHT22;8173;48.354;9.248;2023-03-14T05:34:59;5.50;99.90
16136;DHT22;8173;48.354;9.248;2023-03-14T05:37:26;5.50;99.90
16136;DHT22;8173;48.354;9.248;2023-03-14T05:39:52;5.50;99.90
16136;DHT22;8173;48.354;9.248;2023-03-14T05:42:19;5.40;99.90
16136;DHT22;8173;48.354;9.248;2023-03-14T05:44:46;5.30;99.90
16136;DHT22;8173;48.354;9.248;2023-03-14T05:47:13;6.50;99.90
16136;DHT22;8173;48.354;9.248;2023-03-14T05:52:08;5.20;99.90
16136;DHT22;8173;48.354;9.248;2023-03-14T05:54:35;5.20;99.90
16136;DHT22;8173;48.354;9.248;2023-03-14T05:57:02;5.10;99.90
16136;DHT22;8173;48.354;9.248;2023-03-14T05:59:28;5.20;99.90
16136;DHT22;8173;48.354;9.248;2023-03-14T06:01:55;5.10;99.90
16136;DHT22;8173;48.354;9.248;2023-03-14T06:04:22;5.10;99.90
16136;DHT22;8173;48.354;9.248;2023-03-14T06:06:48;5.10;99.90
16136;DHT22;8173;48.354;9.248;2023-03-14T06:09:16;5.10;99.90
16136;DHT22;8173;48.354;9.248;2023-03-14T06:11:45;5.20;99.90
16136;DHT22;8173;48.354;9.248;2023-03-14T06:14:12;5.20;99.90
16136;DHT22;8173;48.354;9.248;2023-03-14T06:16:39;5.20;99.90
16136;DHT22;8173;48.354;9.248;2023-03-14T06:19:05;5.20;99.90
16136;DHT22;8173;48.354;9.248;2023-03-14T06:21:32;5.10;99.90
16136;DHT22;8173;48.354;9.248;2023-03-14T06:23:59;5.00;99.90
16136;DHT22;8173;48.354;9.248;2023-03-14T06:26:27;5.00;99.90
16136;DHT22;8173;48.354;9.248;2023-03-14T06:28:54;5.00;99.90
16136;DHT22;8173;48.354;9.248;2023-03-14T06:31:20;4.90;99.90
16136;DHT22;8173;48.354;9.248;2023-03-14T06:33:47;6.10;99.90
16136;DHT22;8173;48.354;9.248;2023-03-14T06:36:14;5.00;99.90
16136;DHT22;8173;48.354;9.248;2023-03-14T06:38:40;5.00;99.90
16136;DHT22;8173;48.354;9.248;2023-03-14T06:41:08;5.00;99.90
16136;DHT22;8173;48.354;9.248;2023-03-14T06:43:36;5.00;99.90
16136;DHT22;8173;48.354;9.248;2023-03-14T06:46:02;5.00;99.90
16136;DHT22;8173;48.354;9.248;2023-03-14T06:48:29;5.00;99.90
16136;DHT22;8173;48.354;9.248;2023-03-14T06:50:56;5.00;99.90
16136;DHT22;8173;48.354;9.248;2023-03-14T06:53:23;7.40;99.90
16136;DHT22;8173;48.354;9.248;2023-03-14T06:55:49;5.00;99.90
16136;DHT22;8173;48.354;9.248;2023-03-14T06:58:16;6.70;99.90
16136;DHT22;8173;48.354;9.248;2023-03-14T07:00:44;5.10;99.90
16136;DHT22;8173;48.354;9.248;2023-03-14T07:03:13;5.30;99.90
16136;DHT22;8173;48.354;9.248;2023-03-14T07:05:40;5.40;99.90
16136;DHT22;8173;48.354;9.248;2023-03-14T07:08:07;5.50;99.90
16136;DHT22;8173;48.354;9.248;2023-03-14T07:10:34;5.90;99.90
16136;DHT22;8173;48.354;9.248;2023-03-14T07:13:01;6.30;99.90
16136;DHT22;8173;48.354;9.248;2023-03-14T07:15:28;6.60;99.90
16136;DHT22;8173;48.354;9.248;2023-03-14T07:17:56;6.50;99.90
16136;DHT22;8173;48.354;9.248;2023-03-14T07:20:22;6.40;99.90
16136;DHT22;8173;48.354;9.248;2023-03-14T07:22:50;6.30;99.90
16136;DHT22;8173;48.354;9.248;2023-03-14T07:25:17;6.20;99.90
16136;DHT22;8173;48.354;9.248;2023-03-14T07:27:44;6.40;99.90
16136;DHT22;8173;48.354;9.248;2023-03-14T07:30:12;6.70;99.90
16136;DHT22;8173;48.354;9.248;2023-03-14T07:32:39;7.10;99.90
16136;DHT22;8173;48.354;9.248;2023-03-14T07:35:08;7.70;99.90
16136;DHT22;8173;48.354;9.248;2023-03-14T07:37:35;8.20;99.90
16136;DHT22;8173;48.354;9.248;2023-03-14T07:40:02;8.60;99.90
16136;DHT22;8173;48.354;9.248;2023-03-14T07:42:32;8.70;99.90
16136;DHT22;8173;48.354;9.248;2023-03-14T07:44:59;9.10;99.90
16136;DHT22;8173;48.354;9.248;2023-03-14T07:47:25;8.80;99.90
16136;DHT22;8173;48.354;9.248;2023-03-14T07:49:52;8.50;99.90
16136;DHT22;8173;48.354;9.248;2023-03-14T07:52:20;8.20;99.90
16136;DHT22;8173;48.354;9.248;2023-03-14T07:54:47;8.00;99.90
16136;DHT22;8173;48.354;9.248;2023-03-14T07:57:13;7.70;99.90
16136;DHT22;8173;48.354;9.248;2023-03-14T07:59:40;7.60;99.90
16136;DHT22;8173;48.354;9.248;2023-03-14T08:02:09;8.90;99.90
16136;DHT22;8173;48.354;9.248;2023-03-14T08:04:37;7.50;99.90
16136;DHT22;8173;48.354;9.248;2023-03-14T08:07:04;7.60;99.90
16136;DHT22;8173;48.354;9.248;2023-03-14T08:09:32;7.70;99.90
16136;DHT22;8173;48.354;9.248;2023-03-14T08:11:59;7.70;99.90
16136;DHT22;8173;48.354;9.248;2023-03-14T08:14:25;7.80;99.90
16136;DHT22;8173;48.354;9.248;2023-03-14T08:16:54;7.90;99.90
16136;DHT22;8173;48.354;9.248;2023-03-14T08:19:21;8.00;99.90
16136;DHT22;8173;48.354;9.248;2023-03-14T08:21:48;8.20;99.90
16136;DHT22;8173;48.354;9.248;2023-03-14T08:24:14;8.30;99.90
16136;DHT22;8173;48.354;9.248;2023-03-14T08:26:42;8.30;99.90
16136;DHT22;8173;48.354;9.248;2023-03-14T08:29:09;8.30;99.90
16136;DHT22;8173;48.354;9.248;2023-03-14T08:31:38;8.30;99.90
16136;DHT22;8173;48.354;9.248;2023-03-14T08:34:04;8.20;99.90
16136;DHT22;8173;48.354;9.248;2023-03-14T08:36:32;8.20;99.90
16136;DHT22;8173;48.354;9.248;2023-03-14T08:38:58;8.20;99.90
16136;DHT22;8173;48.354;9.248;2023-03-14T08:41:25;8.20;99.90
16136;DHT22;8173;48.354;9.248;2023-03-14T08:43:53;8.20;99.90
16136;DHT22;8173;48.354;9.248;2023-03-14T08:46:20;8.70;99.90
16136;DHT22;8173;48.354;9.248;2023-03-14T08:48:47;8.10;99.90
16136;DHT22;8173;48.354;9.248;2023-03-14T08:51:14;8.10;99.90
16136;DHT22;8173;48.354;9.248;2023-03-14T08:53:41;8.10;99.90
16136;DHT22;8173;48.354;9.248;2023-03-14T08:56:08;8.10;99.90
16136;DHT22;8173;48.354;9.248;2023-03-14T08:58:36;8.20;99.90
16136;DHT22;8173;48.354;9.248;2023-03-14T09:01:05;8.40;99.90
16136;DHT22;8173;48.354;9.248;2023-03-14T09:03:32;8.70;99.90
16136;DHT22;8173;48.354;9.248;2023-03-14T09:06:02;9.00;99.90
16136;DHT22;8173;48.354;9.248;2023-03-14T09:08:30;9.00;99.90
16136;DHT22;8173;48.354;9.248;2023-03-14T09:13:24;9.10;99.90
16136;DHT22;8173;48.354;9.248;2023-03-14T09:15:51;9.10;99.90
16136;DHT22;8173;48.354;9.248;2023-03-14T09:18:25;9.20;99.90
16136;DHT22;8173;48.354;9.248;2023-03-14T09:20:52;9.10;99.90
16136;DHT22;8173;48.354;9.248;2023-03-14T09:23:19;9.30;99.90
16136;DHT22;8173;48.354;9.248;2023-03-14T09:25:45;9.00;99.90
16136;DHT22;8173;48.354;9.248;2023-03-14T09:28:12;8.90;99.90
16136;DHT22;8173;48.354;9.248;2023-03-14T09:30:39;8.80;99.90
16136;DHT22;8173;48.354;9.248;2023-03-14T09:33:06;8.70;99.90
16136;DHT22;8173;48.354;9.248;2023-03-14T09:35:34;8.50;99.90
16136;DHT22;8173;48.354;9.248;2023-03-14T09:38:01;8.80;99.90
16136;DHT22;8173;48.354;9.248;2023-03-14T09:40:31;8.50;99.90
16136;DHT22;8173;48.354;9.248;2023-03-14T09:43:00;8.40;99.90
16136;DHT22;8173;48.354;9.248;2023-03-14T09:45:28;8.40;99.90
16136;DHT22;8173;48.354;9.248;2023-03-14T09:47:57;8.40;99.90
16136;DHT22;8173;48.354;9.248;2023-03-14T09:50:26;8.20;99.90
16136;DHT22;8173;48.354;9.248;2023-03-14T09:53:02;8.20;99.90
16136;DHT22;8173;48.354;9.248;2023-03-14T09:55:29;8.20;99.90
16136;DHT22;8173;48.354;9.248;2023-03-14T09:57:58;8.30;99.90
16136;DHT22;8173;48.354;9.248;2023-03-14T10:00:28;8.20;99.90
16136;DHT22;8173;48.354;9.248;2023-03-14T10:02:59;8.10;99.90
16136;DHT22;8173;48.354;9.248;2023-03-14T10:05:27;7.90;99.90
16136;DHT22;8173;48.354;9.248;2023-03-14T10:07:56;7.80;99.90
16136;DHT22;8173;48.354;9.248;2023-03-14T10:10:25;7.70;99.90
16136;DHT22;8173;48.354;9.248;2023-03-14T10:12:56;7.80;99.90
16136;DHT22;8173;48.354;9.248;2023-03-14T10:15:25;8.40;99.90
16136;DHT22;8173;48.354;9.248;2023-03-14T10:17:52;7.80;99.90
16136;DHT22;8173;48.354;9.248;2023-03-14T10:20:28;7.80;99.90
16136;DHT22;8173;48.354;9.248;2023-03-14T10:23:00;7.80;99.90
16136;DHT22;8173;48.354;9.248;2023-03-14T10:25:28;8.00;99.90
16136;DHT22;8173;48.354;9.248;2023-03-14T10:27:56;8.10;99.90
16136;DHT22;8173;48.354;9.248;2023-03-14T10:30:39;8.10;99.90
16136;DHT22;8173;48.354;9.248;2023-03-14T10:33:10;8.10;99.90
16136;DHT22;8173;48.354;9.248;2023-03-14T10:35:37;8.20;99.90
16136;DHT22;8173;48.354;9.248;2023-03-14T10:38:10;8.30;99.90
16136;DHT22;8173;48.354;9.248;2023-03-14T10:40:40;8.80;99.90
16136;DHT22;8173;48.354;9.248;2023-03-14T10:43:14;8.30;99.90
16136;DHT22;8173;48.354;9.248;2023-03-14T10:45:44;8.20;99.90
16136;DHT22;8173;48.354;9.248;2023-03-14T10:48:21;8.10;99.90
16136;DHT22;8173;48.354;9.248;2023-03-14T10:50:53;10.20;99.90
16136;DHT22;8173;48.354;9.248;2023-03-14T10:53:22;8.20;99.90
16136;DHT22;8173;48.354;9.248;2023-03-14T10:55:49;8.20;99.90
16136;DHT22;8173;48.354;9.248;2023-03-14T10:58:24;8.30;99.90
16136;DHT22;8173;48.354;9.248;2023-03-14T11:00:57;8.40;99.90
16136;DHT22;8173;48.354;9.248;2023-03-14T11:03:28;8.40;99.90
16136;DHT22;8173;48.354;9.248;2023-03-14T11:05:57;8.30;99.90
16136;DHT22;8173;48.354;9.248;2023-03-14T11:08:31;8.20;99.90
16136;DHT22;8173;48.354;9.248;2023-03-14T11:11:10;8.10;99.90
16136;DHT22;8173;48.354;9.248;2023-03-14T11:16:34;8.20;99.90
16136;DHT22;8173;48.354;9.248;2023-03-14T11:19:16;7.70;99.90
16136;DHT22;8173;48.354;9.248;2023-03-14T11:21:51;7.60;99.90
16136;DHT22;8173;48.354;9.248;2023-03-14T11:24:41;7.60;99.90
16136;DHT22;8173;48.354;9.248;2023-03-14T11:27:17;7.50;99.90
16136;DHT22;8173;48.354;9.248;2023-03-14T11:29:54;7.50;99.90
16136;DHT22;8173;48.354;9.248;2023-03-14T11:32:36;7.40;99.90
16136;DHT22;8173;48.354;9.248;2023-03-14T11:35:24;7.30;99.90
16136;DHT22;8173;48.354;9.248;2023-03-14T11:37:56;7.30;99.90
16136;DHT22;8173;48.354;9.248;2023-03-14T11:40:30;7.40;99.90
16136;DHT22;8173;48.354;9.248;2023-03-14T11:43:11;7.30;99.90
16136;DHT22;8173;48.354;9.248;2023-03-14T11:45:42;7.30;99.90
16136;DHT22;8173;48.354;9.248;2023-03-14T11:48:56;7.60;99.90
16136;DHT22;8173;48.354;9.248;2023-03-14T11:51:29;7.50;99.90
16136;DHT22;8173;48.354;9.248;2023-03-14T11:54:22;7.60;99.90
16136;DHT22;8173;48.354;9.248;2023-03-14T12:00:16;7.50;99.90
16136;DHT22;8173;48.354;9.248;2023-03-14T12:02:50;7.50;99.90
16136;DHT22;8173;48.354;9.248;2023-03-14T12:05:30;7.50;99.90
16136;DHT22;8173;48.354;9.248;2023-03-14T12:08:33;7.60;99.90
16136;DHT22;8173;48.354;9.248;2023-03-14T12:11:10;7.70;99.90
16136;DHT22;8173;48.354;9.248;2023-03-14T12:13:39;7.90;99.90
16136;DHT22;8173;48.354;9.248;2023-03-14T12:16:37;7.60;99.90
16136;DHT22;8173;48.354;9.248;2023-03-14T12:19:25;7.60;99.90
16136;DHT22;8173;48.354;9.248;2023-03-14T12:22:28;7.40;99.90
16136;DHT22;8173;48.354;9.248;2023-03-14T12:25:00;7.30;99.90
16136;DHT22;8173;48.354;9.248;2023-03-14T12:27:42;7.30;99.90
16136;DHT22;8173;48.354;9.248;2023-03-14T12:30:17;7.30;99.90
16136;DHT22;8173;48.354;9.248;2023-03-14T12:33:21;8.10;99.90
16136;DHT22;8173;48.354;9.248;2023-03-14T12:35:58;7.00;99.90
16136;DHT22;8173;48.354;9.248;2023-03-14T12:38:32;6.90;99.90
16136;DHT22;8173;48.354;9.248;2023-03-14T12:41:14;6.70;99.90
16136;DHT22;8173;48.354;9.248;2023-03-14T12:43:52;6.70;99.90
16136;DHT22;8173;48.354;9.248;2023-03-14T12:46:36;6.40;99.90
16136;DHT22;8173;48.354;9.248;2023-03-14T12:49:08;5.70;99.90
16136;DHT22;8173;48.354;9.248;2023-03-14T12:51:37;5.40;99.90
16136;DHT22;8173;48.354;9.248;2023-03-14T12:54:13;5.60;99.90
16136;DHT22;8173;48.354;9.248;2023-03-14T12:57:06;5.60;99.90
16136;DHT22;8173;48.354;9.248;2023-03-14T12:59:37;5.80;99.90
16136;DHT22;8173;48.354;9.248;2023-03-14T13:02:21;6.00;99.90
16136;DHT22;8173;48.354;9.248;2023-03-14T13:04:54;6.10;99.90
16136;DHT22;8173;48.354;9.248;2023-03-14T13:07:35;6.20;99.90
16136;DHT22;8173;48.354;9.248;2023-03-14T13:10:25;6.40;99.90
16136;DHT22;8173;48.354;9.248;2023-03-14T13:12:55;6.60;99.90
16136;DHT22;8173;48.354;9.248;2023-03-14T13:15:31;6.60;99.90
16136;DHT22;8173;48.354;9.248;2023-03-14T13:18:02;6.50;99.90
16136;DHT22;8173;48.354;9.248;2023-03-14T13:20:32;6.50;99.90
16136;DHT22;8173;48.354;9.248;2023-03-14T13:23:00;6.20;99.90
16136;DHT22;8173;48.354;9.248;2023-03-14T13:25:32;6.00;99.90
16136;DHT22;8173;48.354;9.248;2023-03-14T13:28:01;5.80;99.90
16136;DHT22;8173;48.354;9.248;2023-03-14T13:30:29;5.70;99.90
16136;DHT22;8173;48.354;9.248;2023-03-14T13:33:04;5.90;99.90
16136;DHT22;8173;48.354;9.248;2023-03-14T13:35:41;5.40;99.90
16136;DHT22;8173;48.354;9.248;2023-03-14T13:38:20;5.30;99.90
16136;DHT22;8173;48.354;9.248;2023-03-14T13:40:49;5.20;99.90
16136;DHT22;8173;48.354;9.248;2023-03-14T13:43:19;5.20;99.90
16136;DHT22;8173;48.354;9.248;2023-03-14T13:45:50;5.10;99.90
16136;DHT22;8173;48.354;9.248;2023-03-14T13:48:17;5.10;99.90
16136;DHT22;8173;48.354;9.248;2023-03-14T13:50:50;5.00;99.90
16136;DHT22;8173;48.354;9.248;2023-03-14T13:53:17;5.10;99.90
16136;DHT22;8173;48.354;9.248;2023-03-14T13:55:44;5.10;99.90
16136;DHT22;8173;48.354;9.248;2023-03-14T13:58:19;5.00;99.90
16136;DHT22;8173;48.354;9.248;2023-03-14T14:00:55;5.00;99.90
16136;DHT22;8173;48.354;9.248;2023-03-14T14:03:22;5.10;99.90
16136;DHT22;8173;48.354;9.248;2023-03-14T14:05:51;5.20;99.90
16136;DHT22;8173;48.354;9.248;2023-03-14T14:08:17;5.50;99.90
16136;DHT22;8173;48.354;9.248;2023-03-14T14:10:47;5.50;99.90
16136;DHT22;8173;48.354;9.248;2023-03-14T14:13:16;5.50;99.90
16136;DHT22;8173;48.354;9.248;2023-03-14T14:15:46;5.50;99.90
16136;DHT22;8173;48.354;9.248;2023-03-14T14:18:17;5.60;99.90
16136;DHT22;8173;48.354;9.248;2023-03-14T14:20:46;5.70;99.90
16136;DHT22;8173;48.354;9.248;2023-03-14T14:23:16;5.70;99.90
16136;DHT22;8173;48.354;9.248;2023-03-14T14:25:45;5.80;99.90
16136;DHT22;8173;48.354;9.248;2023-03-14T14:28:17;5.90;99.90
16136;DHT22;8173;48.354;9.248;2023-03-14T14:30:59;6.80;99.90
16136;DHT22;8173;48.354;9.248;2023-03-14T14:33:26;6.20;99.90
16136;DHT22;8173;48.354;9.248;2023-03-14T14:35:56;6.00;99.90
16136;DHT22;8173;48.354;9.248;2023-03-14T14:38:25;5.80;99.90
16136;DHT22;8173;48.354;9.248;2023-03-14T14:40:54;5.50;99.90
16136;DHT22;8173;48.354;9.248;2023-03-14T14:43:24;5.20;99.90
16136;DHT22;8173;48.354;9.248;2023-03-14T14:45:54;5.10;99.90
16136;DHT22;8173;48.354;9.248;2023-03-14T14:48:23;4.90;99.90
16136;DHT22;8173;48.354;9.248;2023-03-14T14:50:55;4.80;99.90
16136;DHT22;8173;48.354;9.248;2023-03-14T14:53:26;4.70;99.90
16136;DHT22;8173;48.354;9.248;2023-03-14T14:55:56;4.70;99.90
16136;DHT22;8173;48.354;9.248;2023-03-14T14:58:25;4.60;99.90
16136;DHT22;8173;48.354;9.248;2023-03-14T15:00:56;6.80;99.90
16136;DHT22;8173;48.354;9.248;2023-03-14T15:03:26;4.60;99.90
16136;DHT22;8173;48.354;9.248;2023-03-14T15:05:54;4.60;99.90
16136;DHT22;8173;48.354;9.248;2023-03-14T15:08:21;4.60;99.90
16136;DHT22;8173;48.354;9.248;2023-03-14T15:10:49;4.80;99.90
16136;DHT22;8173;48.354;9.248;2023-03-14T15:13:16;5.00;99.90
16136;DHT22;8173;48.354;9.248;2023-03-14T15:15:43;5.20;99.90
16136;DHT22;8173;48.354;9.248;2023-03-14T15:18:13;5.40;99.90
16136;DHT22;8173;48.354;9.248;2023-03-14T15:20:41;5.50;99.90
16136;DHT22;8173;48.354;9.248;2023-03-14T15:23:12;5.80;99.90
16136;DHT22;8173;48.354;9.248;2023-03-14T15:25:39;7.10;99.90
16136;DHT22;8173;48.354;9.248;2023-03-14T15:28:14;7.30;99.90
16136;DHT22;8173;48.354;9.248;2023-03-14T15:30:42;6.00;99.90
16136;DHT22;8173;48.354;9.248;2023-03-14T15:33:09;8.20;99.90
16136;DHT22;8173;48.354;9.248;2023-03-14T15:35:41;5.90;99.90
16136;DHT22;8173;48.354;9.248;2023-03-14T15:38:10;5.80;99.90
16136;DHT22;8173;48.354;9.248;2023-03-14T15:40:38;5.80;99.90
16136;DHT22;8173;48.354;9.248;2023-03-14T15:43:05;7.80;99.90
16136;DHT22;8173;48.354;9.248;2023-03-14T15:45:33;5.70;99.90
16136;DHT22;8173;48.354;9.248;2023-03-14T15:48:00;5.50;99.90
16136;DHT22;8173;48.354;9.248;2023-03-14T15:50:27;5.50;99.90
16136;DHT22;8173;48.354;9.248;2023-03-14T15:52:54;5.70;99.90
16136;DHT22;8173;48.354;9.248;2023-03-14T15:55:21;5.20;99.90
16136;DHT22;8173;48.354;9.248;2023-03-14T15:57:48;5.10;99.90
16136;DHT22;8173;48.354;9.248;2023-03-14T16:00:19;5.30;99.90
16136;DHT22;8173;48.354;9.248;2023-03-14T16:02:48;5.40;99.90
16136;DHT22;8173;48.354;9.248;2023-03-14T16:05:16;5.30;99.90
16136;DHT22;8173;48.354;9.248;2023-03-14T16:07:44;6.20;99.90
16136;DHT22;8173;48.354;9.248;2023-03-14T16:10:12;4.90;99.90
16136;DHT22;8173;48.354;9.248;2023-03-14T16:12:39;4.90;99.90
16136;DHT22;8173;48.354;9.248;2023-03-14T16:15:08;4.80;99.90
16136;DHT22;8173;48.354;9.248;2023-03-14T16:17:35;4.80;99.90
16136;DHT22;8173;48.354;9.248;2023-03-14T16:20:07;4.70;99.90
16136;DHT22;8173;48.354;9.248;2023-03-14T16:22:34;4.70;99.90
16136;DHT22;8173;48.354;9.248;2023-03-14T16:25:02;4.80;99.90
16136;DHT22;8173;48.354;9.248;2023-03-14T16:27:29;4.70;99.90
16136;DHT22;8173;48.354;9.248;2023-03-14T16:29:56;4.60;99.90
16136;DHT22;8173;48.354;9.248;2023-03-14T16:32:22;4.60;99.90
16136;DHT22;8173;48.354;9.248;2023-03-14T16:34:49;4.60;99.90
16136;DHT22;8173;48.354;9.248;2023-03-14T16:37:17;4.60;99.90